createdAt,value
2022-12-08T00:02:04.838Z,17.10
2022-12-08T00:04:54.374Z,16.93
2022-12-08T00:07:51.974Z,16.63
2022-12-08T00:10:47.881Z,17.13
2022-12-08T00:13:08.693Z,16.13
2022-12-08T00:15:38.278Z,16.60
2022-12-08T00:18:07.112Z,17.67
2022-12-08T00:20:37.455Z,17.30
2022-12-08T00:23:05.789Z,16.47
2022-12-08T00:25:37.378Z,17.77
2022-12-08T00:28:06.094Z,17.67
2022-12-08T00:30:34.328Z,19.03
2022-12-08T00:33:04.106Z,18.23
2022-12-08T00:35:32.445Z,18.50
2022-12-08T00:38:01.183Z,18.10
2022-12-08T00:40:29.893Z,19.57
2022-12-08T00:42:58.280Z,17.70
2022-12-08T00:45:26.424Z,17.70
2022-12-08T00:47:55.033Z,19.27
2022-12-08T00:50:24.652Z,18.97
2022-12-08T00:52:52.814Z,19.20
2022-12-08T00:55:21.353Z,19.57
2022-12-08T00:57:49.721Z,19.37
2022-12-08T01:00:18.388Z,19.53
2022-12-08T01:02:46.899Z,20.50
2022-12-08T01:05:15.457Z,19.73
2022-12-08T01:07:44.995Z,18.80
2022-12-08T01:10:13.492Z,20.10
2022-12-08T01:12:41.900Z,18.93
2022-12-08T01:15:10.926Z,20.23
2022-12-08T01:17:39.591Z,19.43
2022-12-08T01:20:09.083Z,19.67
2022-12-08T01:22:37.288Z,19.80
2022-12-08T01:25:07.452Z,18.33
2022-12-08T01:27:35.924Z,19.67
2022-12-08T01:30:04.705Z,18.20
2022-12-08T01:32:33.339Z,18.13
2022-12-08T01:35:01.850Z,17.93
2022-12-08T01:37:31.121Z,17.50
2022-12-08T01:39:59.408Z,18.23
2022-12-08T01:42:30.210Z,17.43
2022-12-08T01:45:02.973Z,17.60
2022-12-08T01:47:37.578Z,17.67
2022-12-08T01:50:09.572Z,18.50
2022-12-08T01:52:41.354Z,18.07
2022-12-08T01:55:14.875Z,18.93
2022-12-08T01:57:47.503Z,18.60
2022-12-08T02:00:18.894Z,18.47
2022-12-08T02:02:55.928Z,18.10
2022-12-08T02:05:26.705Z,18.87
2022-12-08T02:07:56.798Z,18.70
2022-12-08T02:10:28.404Z,19.17
2022-12-08T02:12:59.895Z,19.10
2022-12-08T02:15:37.009Z,18.70
2022-12-08T02:18:26.561Z,18.00
2022-12-08T02:20:58.722Z,18.43
2022-12-08T02:23:37.795Z,18.00
2022-12-08T02:26:47.700Z,17.60
2022-12-08T02:29:46.295Z,17.80
2022-12-08T02:32:36.050Z,18.23
2022-12-08T02:35:11.917Z,17.13
2022-12-08T02:37:47.140Z,18.30
2022-12-08T02:40:23.422Z,18.63
2022-12-08T02:42:58.708Z,17.90
2022-12-08T02:45:29.799Z,17.73
2022-12-08T02:47:59.809Z,17.40
2022-12-08T02:50:29.799Z,17.57
2022-12-08T02:52:58.541Z,16.50
2022-12-08T02:55:29.261Z,17.03
2022-12-08T02:58:18.936Z,17.10
2022-12-08T03:01:02.941Z,17.00
2022-12-08T03:03:42.387Z,15.37
2022-12-08T03:06:21.869Z,17.03
2022-12-08T03:08:55.802Z,16.53
2022-12-08T03:11:29.576Z,17.63
2022-12-08T03:14:01.571Z,16.40
2022-12-08T03:16:35.938Z,16.50
2022-12-08T03:19:08.924Z,16.17
2022-12-08T03:21:42.539Z,16.93
2022-12-08T03:24:13.706Z,16.77
2022-12-08T03:26:48.024Z,17.27
2022-12-08T03:29:16.952Z,17.73
2022-12-08T03:31:51.458Z,17.20
2022-12-08T03:34:23.215Z,16.83
2022-12-08T03:36:52.867Z,17.03
2022-12-08T03:39:21.311Z,17.00
2022-12-08T03:41:49.594Z,18.13
2022-12-08T03:44:17.970Z,17.67
2022-12-08T03:46:46.646Z,17.63
2022-12-08T03:49:15.008Z,18.03
2022-12-08T03:51:43.504Z,18.13
2022-12-08T03:54:13.087Z,17.47
2022-12-08T03:56:41.565Z,17.33
2022-12-08T03:59:11.427Z,17.87
2022-12-08T04:01:39.699Z,18.70
2022-12-08T04:04:08.004Z,18.10
2022-12-08T04:06:36.279Z,18.33
2022-12-08T04:09:04.690Z,17.97
2022-12-08T04:11:34.453Z,19.23
2022-12-08T04:14:02.967Z,18.07
2022-12-08T04:16:31.200Z,17.43
2022-12-08T04:18:59.465Z,19.13
2022-12-08T04:21:30.237Z,18.20
2022-12-08T04:24:01.297Z,18.07
2022-12-08T04:26:30.272Z,18.77
2022-12-08T04:28:59.836Z,18.57
2022-12-08T04:31:28.058Z,19.57
2022-12-08T04:33:56.567Z,20.70
2022-12-08T04:36:24.705Z,20.80
2022-12-08T04:38:52.871Z,20.03
2022-12-08T04:41:21.624Z,19.93
2022-12-08T04:43:49.813Z,19.93
2022-12-08T04:46:19.514Z,19.23
2022-12-08T04:48:47.942Z,19.10
2022-12-08T04:51:18.461Z,19.03
2022-12-08T04:53:47.538Z,18.37
2022-12-08T04:56:16.856Z,18.97
2022-12-08T04:58:45.152Z,18.67
2022-12-08T05:01:13.821Z,17.57
2022-12-08T05:03:43.907Z,16.83
2022-12-08T05:06:14.525Z,16.43
2022-12-08T05:08:43.172Z,16.57
2022-12-08T05:11:13.334Z,16.23
2022-12-08T05:13:41.974Z,16.77
2022-12-08T05:16:12.071Z,16.40
2022-12-08T05:18:41.681Z,16.10
2022-12-08T05:21:12.000Z,16.13
2022-12-08T05:23:40.222Z,15.53
2022-12-08T05:26:08.622Z,15.03
2022-12-08T05:28:41.947Z,16.60
2022-12-08T05:31:11.594Z,16.30
2022-12-08T05:33:40.584Z,15.30
2022-12-08T05:36:10.867Z,14.97
2022-12-08T05:38:39.356Z,14.83
2022-12-08T05:41:08.453Z,14.63
2022-12-08T05:43:37.310Z,14.70
2022-12-08T05:46:06.306Z,14.47
2022-12-08T05:48:34.906Z,14.10
2022-12-08T05:51:03.519Z,13.50
2022-12-08T05:53:33.237Z,14.27
2022-12-08T05:56:01.369Z,14.13
2022-12-08T05:58:29.593Z,12.53
2022-12-08T06:00:57.890Z,13.10
2022-12-08T06:03:26.940Z,12.90
2022-12-08T06:05:55.192Z,12.50
2022-12-08T06:08:25.963Z,11.80
2022-12-08T06:10:55.651Z,11.53
2022-12-08T06:13:24.008Z,11.97
2022-12-08T06:15:52.402Z,11.33
2022-12-08T06:18:20.614Z,10.87
2022-12-08T06:20:48.979Z,10.50
2022-12-08T06:23:17.420Z,10.63
2022-12-08T06:25:45.658Z,10.50
2022-12-08T06:28:15.156Z,10.20
2022-12-08T06:30:43.495Z,10.17
2022-12-08T06:33:11.619Z,9.90
2022-12-08T06:35:39.854Z,9.47
2022-12-08T06:38:08.374Z,9.17
2022-12-08T06:40:36.608Z,9.13
2022-12-08T06:43:05.147Z,9.03
2022-12-08T06:45:34.818Z,9.37
2022-12-08T06:48:04.081Z,9.60
2022-12-08T06:50:33.414Z,8.77
2022-12-08T06:53:05.393Z,8.97
2022-12-08T06:55:58.892Z,9.23
2022-12-08T06:58:24.951Z,8.10
2022-12-08T07:00:55.133Z,8.07
2022-12-08T07:03:23.381Z,12.20
2022-12-08T07:05:51.803Z,10.90
2022-12-08T07:08:20.311Z,9.63
2022-12-08T07:10:48.505Z,11.23
2022-12-08T07:13:17.050Z,11.87
2022-12-08T07:15:45.371Z,11.47
2022-12-08T07:18:14.918Z,10.77
2022-12-08T07:20:43.217Z,10.00
2022-12-08T07:23:11.538Z,9.00
2022-12-08T07:25:41.648Z,9.80
2022-12-08T07:28:11.605Z,10.27
2022-12-08T07:30:40.261Z,10.50
2022-12-08T07:33:08.495Z,9.90
2022-12-08T07:35:38.084Z,10.27
2022-12-08T07:38:06.354Z,10.73
2022-12-08T07:40:34.930Z,10.50
2022-12-08T07:43:03.335Z,10.63
2022-12-08T07:45:32.039Z,10.73
2022-12-08T07:48:00.647Z,10.47
2022-12-08T07:50:29.247Z,11.33
2022-12-08T07:52:58.910Z,10.47
2022-12-08T07:55:27.386Z,10.90
2022-12-08T07:57:56.095Z,11.60
2022-12-08T08:00:24.762Z,10.63
2022-12-08T08:02:53.301Z,11.30
2022-12-08T08:05:22.090Z,10.97
2022-12-08T08:07:50.700Z,10.27
2022-12-08T08:10:22.819Z,10.07
2022-12-08T08:12:51.285Z,11.00
2022-12-08T08:15:21.187Z,11.00
2022-12-08T08:17:51.912Z,10.87
2022-12-08T08:20:21.159Z,10.23
2022-12-08T08:22:53.409Z,10.73
2022-12-08T08:25:23.934Z,11.50
2022-12-08T08:27:52.371Z,11.37
2022-12-08T08:30:21.224Z,11.93
2022-12-08T08:32:50.779Z,11.57
2022-12-08T08:35:19.115Z,11.83
2022-12-08T08:37:49.237Z,10.50
2022-12-08T08:40:18.204Z,12.10
2022-12-08T08:42:47.758Z,12.13
2022-12-08T08:45:16.010Z,11.80
2022-12-08T08:47:45.181Z,13.00
2022-12-08T08:50:13.436Z,12.03
2022-12-08T08:52:41.730Z,12.63
2022-12-08T08:55:10.644Z,13.80
2022-12-08T08:57:38.830Z,13.73
2022-12-08T09:00:10.761Z,17.60
2022-12-08T09:02:39.765Z,13.90
2022-12-08T09:05:08.939Z,13.40
2022-12-08T09:07:37.361Z,23.00
2022-12-08T09:10:06.915Z,20.77
2022-12-08T09:12:35.348Z,14.30
2022-12-08T09:15:03.584Z,14.70
2022-12-08T09:17:33.547Z,15.87
2022-12-08T09:20:02.937Z,24.07
2022-12-08T09:22:31.698Z,19.73
2022-12-08T09:25:00.180Z,14.80
2022-12-08T09:27:28.574Z,15.60
2022-12-08T09:29:56.799Z,17.57
2022-12-08T09:32:25.211Z,14.37
2022-12-08T09:34:55.513Z,26.47
2022-12-08T09:37:23.837Z,19.00
2022-12-08T09:39:52.234Z,18.67
2022-12-08T09:42:29.811Z,13.33
2022-12-08T09:45:05.072Z,16.87
2022-12-08T09:47:38.700Z,12.73
2022-12-08T09:50:16.954Z,12.03
2022-12-08T09:52:48.616Z,11.53
2022-12-08T09:55:23.663Z,12.37
2022-12-08T09:57:58.852Z,12.33
2022-12-08T10:00:27.564Z,10.93
2022-12-08T10:02:57.328Z,11.00
2022-12-08T10:05:29.460Z,12.10
2022-12-08T10:08:07.301Z,10.80
2022-12-08T10:10:43.359Z,12.67
2022-12-08T10:13:21.857Z,13.60
2022-12-08T10:15:58.843Z,9.00
2022-12-08T10:18:30.453Z,9.33
2022-12-08T10:21:14.860Z,9.33
2022-12-08T10:23:45.885Z,9.63
2022-12-08T10:26:16.988Z,9.80
2022-12-08T10:28:45.910Z,9.93
2022-12-08T10:31:21.712Z,9.57
2022-12-08T10:33:57.788Z,10.47
2022-12-08T10:36:46.099Z,9.90
2022-12-08T10:39:45.561Z,9.57
2022-12-08T10:42:22.424Z,9.70
2022-12-08T10:44:59.269Z,9.90
2022-12-08T10:47:29.326Z,8.17
2022-12-08T10:50:20.365Z,8.10
2022-12-08T10:52:57.246Z,8.00
2022-12-08T10:55:25.830Z,7.20
2022-12-08T10:57:54.108Z,7.70
2022-12-08T11:00:24.794Z,7.30
2022-12-08T11:03:21.489Z,7.63
2022-12-08T11:05:50.313Z,8.20
2022-12-08T11:08:20.366Z,7.87
2022-12-08T11:10:49.070Z,7.47
2022-12-08T11:13:26.429Z,7.50
2022-12-08T11:15:56.402Z,7.90
2022-12-08T11:18:29.413Z,7.70
2022-12-08T11:21:01.170Z,7.57
2022-12-08T11:23:32.069Z,7.67
2022-12-08T11:26:08.503Z,7.83
2022-12-08T11:28:39.143Z,8.20
2022-12-08T11:31:18.569Z,9.07
2022-12-08T11:33:48.696Z,8.10
2022-12-08T11:36:17.395Z,7.83
2022-12-08T11:38:51.268Z,7.30
2022-12-08T11:41:23.390Z,7.03
2022-12-08T11:43:57.695Z,9.23
2022-12-08T11:46:29.877Z,8.10
2022-12-08T11:49:06.442Z,7.57
2022-12-08T11:51:38.117Z,6.80
2022-12-08T11:54:20.532Z,8.03
2022-12-08T11:56:51.205Z,7.57
2022-12-08T11:59:28.044Z,7.37
2022-12-08T12:01:56.834Z,7.43
2022-12-08T12:04:30.980Z,7.63
2022-12-08T12:07:32.091Z,7.40
2022-12-08T12:10:22.063Z,8.20
2022-12-08T12:13:09.766Z,9.27
2022-12-08T12:16:06.518Z,8.40
2022-12-08T12:18:40.301Z,7.73
2022-12-08T12:21:13.537Z,8.50
2022-12-08T12:23:45.672Z,9.33
2022-12-08T12:26:22.595Z,8.00
2022-12-08T12:28:54.860Z,7.63
2022-12-08T12:31:27.089Z,7.50
2022-12-08T12:34:04.588Z,7.40
2022-12-08T12:36:33.736Z,6.40
2022-12-08T12:39:04.114Z,6.33
2022-12-08T12:41:43.370Z,6.23
2022-12-08T12:44:38.992Z,7.03
2022-12-08T12:47:12.701Z,6.47
2022-12-08T12:50:16.540Z,6.10
2022-12-08T12:52:49.705Z,5.77
2022-12-08T12:55:23.114Z,6.73
2022-12-08T12:57:55.311Z,5.47
2022-12-08T13:00:25.041Z,6.00
2022-12-08T13:02:54.451Z,6.10
2022-12-08T13:05:26.755Z,4.63
2022-12-08T13:07:58.013Z,5.00
2022-12-08T13:10:30.674Z,4.63
2022-12-08T13:13:17.432Z,4.93
2022-12-08T13:15:52.596Z,4.93
2022-12-08T13:18:22.901Z,5.00
2022-12-08T13:20:54.789Z,6.30
2022-12-08T13:23:30.446Z,5.43
2022-12-08T13:26:20.965Z,6.37
2022-12-08T13:29:18.311Z,4.47
2022-12-08T13:31:51.130Z,5.00
2022-12-08T13:34:39.262Z,3.80
2022-12-08T13:37:21.987Z,3.93
2022-12-08T13:39:55.969Z,3.90
2022-12-08T13:42:31.859Z,3.90
2022-12-08T13:45:48.787Z,4.40
2022-12-08T13:48:27.030Z,4.33
2022-12-08T13:54:46.323Z,3.90
2022-12-08T13:59:30.601Z,4.67
2022-12-08T14:02:04.843Z,3.97
2022-12-08T14:05:09.328Z,3.90
2022-12-08T14:07:24.979Z,3.60
2022-12-08T14:09:54.468Z,4.00
2022-12-08T14:12:25.954Z,3.50
2022-12-08T14:15:04.076Z,3.50
2022-12-08T14:17:35.354Z,3.67
2022-12-08T14:20:24.705Z,3.50
2022-12-08T14:22:53.883Z,4.00
2022-12-08T14:25:24.105Z,3.00
2022-12-08T14:27:59.150Z,2.90
2022-12-08T14:30:31.797Z,3.23
2022-12-08T14:33:03.336Z,4.43
2022-12-08T14:35:33.701Z,4.13
2022-12-08T14:38:03.302Z,5.17
2022-12-08T14:40:35.508Z,9.03
2022-12-08T14:43:16.697Z,2.80
2022-12-08T14:45:50.928Z,3.47
2022-12-08T14:48:26.660Z,5.20
2022-12-08T14:51:02.677Z,2.73
2022-12-08T14:53:38.581Z,2.87
2022-12-08T14:56:20.733Z,6.20
2022-12-08T14:58:51.178Z,3.93
2022-12-08T15:01:24.699Z,4.97
2022-12-08T15:03:55.584Z,3.77
2022-12-08T15:06:24.265Z,2.83
2022-12-08T15:08:55.791Z,2.90
2022-12-08T15:11:35.914Z,3.07
2022-12-08T15:14:05.079Z,2.83
2022-12-08T15:16:39.967Z,3.17
2022-12-08T15:19:23.544Z,3.10
2022-12-08T15:21:52.290Z,3.00
2022-12-08T15:24:23.820Z,3.17
2022-12-08T15:26:53.182Z,3.23
2022-12-08T15:29:24.011Z,3.17
2022-12-08T15:31:54.781Z,3.10
2022-12-08T15:34:24.520Z,3.30
2022-12-08T15:36:55.458Z,3.43
2022-12-08T15:39:33.731Z,3.63
2022-12-08T15:42:03.226Z,3.70
2022-12-08T15:44:32.922Z,5.07
2022-12-08T15:47:01.936Z,14.97
2022-12-08T15:49:31.939Z,11.87
2022-12-08T15:52:10.719Z,10.30
2022-12-08T15:54:40.169Z,10.57
2022-12-08T15:57:20.481Z,8.20
2022-12-08T15:59:59.024Z,8.67
2022-12-08T16:02:34.375Z,6.87
2022-12-08T16:08:30.115Z,15.00
2022-12-08T16:12:03.734Z,14.33
2022-12-08T16:14:33.603Z,11.57
2022-12-08T16:16:51.256Z,17.67
2022-12-08T16:19:19.579Z,17.07
2022-12-08T16:22:37.071Z,9.30
2022-12-08T16:24:38.014Z,11.93
2022-12-08T16:29:54.879Z,14.00
2022-12-08T16:32:23.205Z,30.97
2022-12-08T16:34:51.846Z,82.17
2022-12-08T16:37:23.810Z,52.93
2022-12-08T16:39:52.927Z,19.93
2022-12-08T16:42:44.151Z,71.30
2022-12-08T16:45:14.170Z,48.00
2022-12-08T16:47:47.054Z,48.57
2022-12-08T16:50:17.357Z,34.03
2022-12-08T16:52:48.017Z,29.13
2022-12-08T16:55:18.746Z,38.27
2022-12-08T16:57:48.149Z,26.20
2022-12-08T17:00:19.600Z,36.83
2022-12-08T17:03:10.048Z,33.47
2022-12-08T17:05:42.005Z,20.03
2022-12-08T17:08:13.278Z,24.97
2022-12-08T17:10:42.668Z,27.83
2022-12-08T17:13:13.042Z,30.47
2022-12-08T17:15:43.506Z,21.73
2022-12-08T17:18:12.360Z,27.17
2022-12-08T17:20:40.977Z,43.20
2022-12-08T17:23:09.533Z,75.67
2022-12-08T17:25:39.513Z,83.60
2022-12-08T17:28:07.799Z,35.93
2022-12-08T17:30:36.034Z,35.53
2022-12-08T17:33:04.714Z,71.80
2022-12-08T17:35:33.073Z,57.87
2022-12-08T17:38:01.318Z,104.13
2022-12-08T17:40:29.694Z,58.03
2022-12-08T17:42:59.373Z,45.37
2022-12-08T17:45:27.791Z,40.87
2022-12-08T17:47:58.514Z,39.77
2022-12-08T17:50:26.780Z,35.23
2022-12-08T17:52:55.095Z,31.43
2022-12-08T17:55:23.419Z,30.17
2022-12-08T17:57:51.633Z,37.47
2022-12-08T18:00:21.936Z,27.93
2022-12-08T18:02:50.601Z,35.27
2022-12-08T18:05:19.525Z,25.00
2022-12-08T18:07:48.125Z,26.00
2022-12-08T18:10:16.903Z,21.80
2022-12-08T18:12:45.535Z,22.27
2022-12-08T18:15:17.449Z,18.40
2022-12-08T18:17:47.335Z,19.37
2022-12-08T18:20:15.854Z,20.10
2022-12-08T18:22:44.621Z,20.80
2022-12-08T18:25:14.313Z,19.43
2022-12-08T18:27:43.303Z,18.70
2022-12-08T18:30:16.542Z,19.40
2022-12-08T18:32:46.241Z,18.63
2022-12-08T18:35:14.690Z,19.40
2022-12-08T18:37:44.216Z,18.90
2022-12-08T18:40:15.472Z,18.03
2022-12-08T18:42:44.228Z,16.90
2022-12-08T18:45:15.707Z,17.73
2022-12-08T18:47:47.581Z,20.00
2022-12-08T18:50:16.337Z,20.67
2022-12-08T18:52:45.432Z,19.37
2022-12-08T18:55:14.572Z,20.23
2022-12-08T18:57:43.940Z,20.00
2022-12-08T19:00:15.579Z,20.20
2022-12-08T19:02:44.395Z,18.93
2022-12-08T19:05:17.140Z,20.50
2022-12-08T19:07:46.923Z,20.53
2022-12-08T19:10:15.154Z,19.57
2022-12-08T19:12:45.610Z,18.87
2022-12-08T19:15:14.752Z,18.90
2022-12-08T19:17:42.948Z,19.27
2022-12-08T19:20:14.543Z,18.93
2022-12-08T19:22:43.091Z,19.80
2022-12-08T19:25:11.333Z,21.50
2022-12-08T19:27:39.528Z,20.07
2022-12-08T19:30:09.559Z,19.80
2022-12-08T19:32:40.674Z,20.13
2022-12-08T19:35:09.590Z,19.43
2022-12-08T19:37:39.628Z,18.87
2022-12-08T19:40:26.434Z,20.67
2022-12-08T19:43:12.003Z,17.33
2022-12-08T19:45:40.361Z,41.70
2022-12-08T19:48:09.103Z,19.70
2022-12-08T19:50:37.537Z,18.97
2022-12-08T19:53:09.084Z,22.53
2022-12-08T19:55:38.754Z,23.23
2022-12-08T19:58:08.415Z,42.50
2022-12-08T20:00:39.902Z,32.00
2022-12-08T20:03:09.168Z,26.07
2022-12-08T20:05:38.440Z,30.17
2022-12-08T20:08:08.303Z,29.80
2022-12-08T20:10:38.980Z,29.20
2022-12-08T20:13:24.830Z,31.70
2022-12-08T20:15:54.199Z,34.40
2022-12-08T20:18:22.872Z,42.77
2022-12-08T20:21:16.621Z,28.30
2022-12-08T20:23:48.679Z,25.00
2022-12-08T20:26:19.185Z,40.13
2022-12-08T20:28:47.591Z,20.97
2022-12-08T20:31:20.206Z,18.33
2022-12-08T20:33:49.062Z,23.13
2022-12-08T20:36:21.662Z,19.17
2022-12-08T20:38:53.408Z,22.40
2022-12-08T20:41:23.272Z,20.83
2022-12-08T20:43:52.112Z,19.13
2022-12-08T20:46:21.887Z,17.83
2022-12-08T20:48:50.113Z,20.10
2022-12-08T20:51:22.334Z,20.67
2022-12-08T20:53:53.448Z,20.17
2022-12-08T20:56:24.499Z,23.30
2022-12-08T20:58:54.096Z,22.90
2022-12-08T21:01:24.547Z,28.77
2022-12-08T21:03:53.547Z,24.87
2022-12-08T21:06:23.627Z,29.37
2022-12-08T21:08:54.076Z,29.60
2022-12-08T21:11:22.520Z,25.87
2022-12-08T21:13:51.501Z,21.30
2022-12-08T21:16:20.377Z,21.93
2022-12-08T21:18:48.709Z,21.47
2022-12-08T21:21:17.885Z,21.20
2022-12-08T21:23:47.019Z,20.00
2022-12-08T21:26:18.705Z,20.73
2022-12-08T21:28:47.897Z,22.13
2022-12-08T21:31:18.405Z,21.23
2022-12-08T21:33:47.910Z,23.43
2022-12-08T21:36:19.395Z,21.37
2022-12-08T21:38:48.696Z,22.13
2022-12-08T21:41:42.009Z,22.77
2022-12-08T21:44:12.691Z,22.23
2022-12-08T21:46:41.112Z,21.67
2022-12-08T21:49:09.887Z,22.17
2022-12-08T21:51:42.383Z,21.37
2022-12-08T21:54:18.331Z,21.47
2022-12-08T21:56:50.074Z,21.87
2022-12-08T21:59:19.809Z,21.30
2022-12-08T22:01:48.437Z,20.13
2022-12-08T22:04:19.439Z,21.07
2022-12-08T22:06:48.396Z,21.30
2022-12-08T22:09:17.128Z,21.47
2022-12-08T22:11:45.967Z,20.00
2022-12-08T22:14:15.911Z,20.70
2022-12-08T22:16:44.546Z,20.87
2022-12-08T22:19:13.576Z,20.63
2022-12-08T22:21:42.370Z,21.17
2022-12-08T22:24:11.073Z,21.23
2022-12-08T22:26:39.359Z,20.00
2022-12-08T22:29:08.170Z,20.97
2022-12-08T22:31:38.322Z,20.37
2022-12-08T22:34:06.853Z,19.47
2022-12-08T22:36:35.265Z,19.93
2022-12-08T22:39:04.188Z,19.17
2022-12-08T22:41:32.946Z,19.33
2022-12-08T22:44:01.532Z,19.23
2022-12-08T22:46:29.937Z,17.67
2022-12-08T22:48:59.686Z,20.27
2022-12-08T22:51:28.179Z,18.80
2022-12-08T22:53:58.740Z,18.57
2022-12-08T22:56:27.306Z,18.50
2022-12-08T22:58:55.806Z,18.20
2022-12-08T23:01:26.353Z,18.80
2022-12-08T23:03:55.027Z,18.23
2022-12-08T23:06:25.682Z,17.60
2022-12-08T23:08:54.245Z,18.50
2022-12-08T23:11:24.980Z,19.53
2022-12-08T23:13:53.670Z,20.27
2022-12-08T23:16:21.978Z,19.63
2022-12-08T23:18:51.188Z,20.23
2022-12-08T23:21:21.103Z,19.03
2022-12-08T23:23:50.968Z,19.17
2022-12-08T23:26:21.955Z,18.97
2022-12-08T23:28:50.564Z,18.13
2022-12-08T23:31:20.090Z,18.23
2022-12-08T23:33:48.733Z,17.60
2022-12-08T23:36:18.897Z,18.37
2022-12-08T23:38:47.665Z,17.47
2022-12-08T23:41:18.406Z,16.90
2022-12-08T23:43:48.131Z,17.00
2022-12-08T23:46:18.445Z,16.47
2022-12-08T23:48:47.413Z,18.57
2022-12-08T23:51:15.929Z,19.37
2022-12-08T23:53:44.682Z,18.50
2022-12-08T23:56:15.790Z,19.70
2022-12-08T23:58:46.487Z,18.50
